createdAt,value
2018-03-16T00:00:50.523Z,26.20
2018-03-16T00:03:18.705Z,24.27
2018-03-16T00:05:46.871Z,24.70
2018-03-16T00:08:15.051Z,24.60
2018-03-16T00:10:43.349Z,24.80
2018-03-16T00:13:11.536Z,22.43
2018-03-16T00:15:39.803Z,25.93
2018-03-16T00:18:08.003Z,26.43
2018-03-16T00:20:37.020Z,26.00
2018-03-16T00:23:05.201Z,24.90
2018-03-16T00:25:33.384Z,26.43
2018-03-16T00:28:01.554Z,24.60
2018-03-16T00:30:30.125Z,27.53
2018-03-16T00:32:58.344Z,26.77
2018-03-16T00:35:26.507Z,24.60
2018-03-16T00:37:54.685Z,27.20
2018-03-16T00:40:22.859Z,25.57
2018-03-16T00:42:51.024Z,23.93
2018-03-16T00:45:19.203Z,25.27
2018-03-16T00:47:47.364Z,32.10
2018-03-16T00:50:15.561Z,22.80
2018-03-16T00:52:43.716Z,23.40
2018-03-16T00:55:11.885Z,24.43
2018-03-16T00:57:40.109Z,22.37
2018-03-16T01:00:08.417Z,23.70
2018-03-16T01:02:36.609Z,23.03
2018-03-16T01:05:04.788Z,21.80
2018-03-16T01:07:32.967Z,24.17
2018-03-16T01:10:01.208Z,28.73
2018-03-16T01:12:29.454Z,22.80
2018-03-16T01:14:58.416Z,27.37
2018-03-16T01:17:27.402Z,19.40
2018-03-16T01:19:55.615Z,24.23
2018-03-16T01:22:23.812Z,26.33
2018-03-16T01:24:51.989Z,24.83
2018-03-16T01:27:20.164Z,25.37
2018-03-16T01:29:48.337Z,27.63
2018-03-16T01:32:16.852Z,26.27
2018-03-16T01:34:45.025Z,26.27
2018-03-16T01:37:13.980Z,23.80
2018-03-16T01:39:42.152Z,26.27
2018-03-16T01:42:10.429Z,27.60
2018-03-16T01:44:38.702Z,26.47
2018-03-16T01:47:06.856Z,23.70
2018-03-16T01:49:35.033Z,26.00
2018-03-16T01:52:03.187Z,23.13
2018-03-16T01:54:31.374Z,24.80
2018-03-16T01:56:59.540Z,24.03
2018-03-16T01:59:27.700Z,23.63
2018-03-16T02:01:55.911Z,27.60
2018-03-16T02:04:24.069Z,29.53
2018-03-16T02:06:52.250Z,26.80
2018-03-16T02:09:20.403Z,31.07
2018-03-16T02:11:48.668Z,28.23
2018-03-16T02:14:16.845Z,28.67
2018-03-16T02:16:45.024Z,25.80
2018-03-16T02:19:13.203Z,28.53
2018-03-16T02:21:41.378Z,27.17
2018-03-16T02:24:09.709Z,26.80
2018-03-16T02:26:38.670Z,26.80
2018-03-16T02:29:07.606Z,26.33
2018-03-16T02:31:35.796Z,26.20
2018-03-16T02:34:03.958Z,32.17
2018-03-16T02:36:32.156Z,25.60
2018-03-16T02:39:00.328Z,25.33
2018-03-16T02:41:28.500Z,29.57
2018-03-16T02:43:56.689Z,28.57
2018-03-16T02:46:24.865Z,31.30
2018-03-16T02:48:53.353Z,28.40
2018-03-16T02:51:23.030Z,29.20
2018-03-16T02:53:51.230Z,30.00
2018-03-16T02:56:19.390Z,32.33
2018-03-16T02:58:47.578Z,31.30
2018-03-16T03:01:15.765Z,32.03
2018-03-16T03:03:44.705Z,36.30
2018-03-16T03:06:12.892Z,30.95
2018-03-16T03:08:41.073Z,35.23
2018-03-16T03:11:09.304Z,35.47
2018-03-16T03:13:37.498Z,35.87
2018-03-16T03:16:05.698Z,33.20
2018-03-16T03:18:33.881Z,32.60
2018-03-16T03:21:02.045Z,32.07
2018-03-16T03:23:30.228Z,35.63
2018-03-16T03:25:59.906Z,36.20
2018-03-16T03:28:28.080Z,31.07
2018-03-16T03:30:56.262Z,38.13
2018-03-16T03:33:24.428Z,30.17
2018-03-16T03:35:52.600Z,28.20
2018-03-16T03:38:20.764Z,29.50
2018-03-16T03:40:49.012Z,32.77
2018-03-16T03:43:17.175Z,36.05
2018-03-16T03:45:45.373Z,30.33
2018-03-16T03:48:13.527Z,28.83
2018-03-16T03:50:42.082Z,28.83
2018-03-16T03:53:11.079Z,33.37
2018-03-16T03:55:39.288Z,31.57
2018-03-16T03:58:07.504Z,26.83
2018-03-16T04:00:35.685Z,41.23
2018-03-16T04:03:03.876Z,27.97
2018-03-16T04:05:32.126Z,30.37
2018-03-16T04:08:01.129Z,28.27
2018-03-16T04:10:30.102Z,30.10
2018-03-16T04:12:58.267Z,32.73
2018-03-16T04:15:26.427Z,29.63
2018-03-16T04:17:54.599Z,33.60
2018-03-16T04:20:22.770Z,30.93
2018-03-16T04:22:50.943Z,31.23
2018-03-16T04:25:19.140Z,31.97
2018-03-16T04:27:47.340Z,33.70
2018-03-16T04:30:15.623Z,33.20
2018-03-16T04:32:43.812Z,32.90
2018-03-16T04:35:11.970Z,34.83
2018-03-16T04:37:40.153Z,39.07
2018-03-16T04:40:08.328Z,32.40
2018-03-16T04:42:36.506Z,31.93
2018-03-16T04:45:04.664Z,36.23
2018-03-16T04:47:32.905Z,32.40
2018-03-16T04:50:01.120Z,29.37
2018-03-16T04:52:29.302Z,32.70
2018-03-16T04:54:57.471Z,31.80
2018-03-16T04:57:25.631Z,37.40
2018-03-16T04:59:53.868Z,34.40
2018-03-16T05:02:22.032Z,42.67
2018-03-16T05:04:50.208Z,38.07
2018-03-16T05:07:19.161Z,41.90
2018-03-16T05:09:47.335Z,32.07
2018-03-16T05:12:15.499Z,36.10
2018-03-16T05:14:43.681Z,40.03
2018-03-16T05:17:11.892Z,32.50
2018-03-16T05:19:40.073Z,31.63
2018-03-16T05:22:08.233Z,36.37
2018-03-16T05:24:36.407Z,36.27
2018-03-16T05:27:04.565Z,35.27
2018-03-16T05:29:32.745Z,34.63
2018-03-16T05:32:00.899Z,35.50
2018-03-16T05:34:29.076Z,37.10
2018-03-16T05:36:57.241Z,35.37
2018-03-16T05:39:25.489Z,32.97
2018-03-16T05:41:53.628Z,38.33
2018-03-16T05:44:22.572Z,37.67
2018-03-16T05:46:50.809Z,35.60
2018-03-16T05:49:19.013Z,35.83
2018-03-16T05:51:47.189Z,33.63
2018-03-16T05:54:16.120Z,34.10
2018-03-16T05:56:45.060Z,35.37
2018-03-16T05:59:13.224Z,40.80
2018-03-16T06:01:41.393Z,37.03
2018-03-16T06:04:09.555Z,36.37
2018-03-16T06:06:37.773Z,32.87
2018-03-16T06:09:05.961Z,28.37
2018-03-16T06:11:34.178Z,32.63
2018-03-16T06:14:02.324Z,30.27
2018-03-16T06:16:31.272Z,30.13
2018-03-16T06:18:59.441Z,29.93
2018-03-16T06:21:27.629Z,28.70
2018-03-16T06:23:55.813Z,27.80
2018-03-16T06:26:24.002Z,29.87
2018-03-16T06:28:52.957Z,26.77
2018-03-16T06:31:21.169Z,33.17
2018-03-16T06:33:50.150Z,30.17
2018-03-16T06:36:18.332Z,37.47
2018-03-16T06:38:46.521Z,28.37
2018-03-16T06:41:14.693Z,31.67
2018-03-16T06:43:44.115Z,37.90
2018-03-16T06:46:12.305Z,34.90
2018-03-16T06:48:40.500Z,29.03
2018-03-16T06:51:08.666Z,33.37
2018-03-16T06:53:36.852Z,31.80
2018-03-16T06:56:05.785Z,32.87
2018-03-16T06:58:34.004Z,33.10
2018-03-16T07:01:02.168Z,31.90
2018-03-16T07:03:30.376Z,30.47
2018-03-16T07:05:58.553Z,23.83
2018-03-16T07:08:26.740Z,29.37
2018-03-16T07:10:54.901Z,27.23
2018-03-16T07:13:23.884Z,25.10
2018-03-16T07:15:52.819Z,25.57
2018-03-16T07:18:21.004Z,24.93
2018-03-16T07:20:49.193Z,23.40
2018-03-16T07:23:17.383Z,26.63
2018-03-16T07:25:46.316Z,21.80
2018-03-16T07:28:14.553Z,23.27
2018-03-16T07:30:43.501Z,23.20
2018-03-16T07:33:11.669Z,22.50
2018-03-16T07:35:41.019Z,27.10
2018-03-16T07:38:09.967Z,25.90
2018-03-16T07:40:38.180Z,23.10
2018-03-16T07:43:07.126Z,21.90
2018-03-16T07:45:40.871Z,23.23
2018-03-16T07:48:09.052Z,22.07
2018-03-16T07:50:37.224Z,20.27
2018-03-16T07:53:06.165Z,24.10
2018-03-16T07:55:34.377Z,19.93
2018-03-16T07:58:03.317Z,19.20
2018-03-16T08:00:31.502Z,20.97
2018-03-16T08:02:59.685Z,17.97
2018-03-16T08:05:27.869Z,19.17
2018-03-16T08:07:56.045Z,19.40
2018-03-16T08:10:24.228Z,16.13
2018-03-16T08:12:52.404Z,16.97
2018-03-16T08:15:21.682Z,15.90
2018-03-16T08:17:50.239Z,14.23
2018-03-16T08:20:19.214Z,14.80
2018-03-16T08:22:47.392Z,14.70
2018-03-16T08:25:15.572Z,15.07
2018-03-16T08:27:43.772Z,13.97
2018-03-16T08:30:11.957Z,13.60
2018-03-16T08:32:40.137Z,14.40
2018-03-16T08:35:08.644Z,14.23
2018-03-16T08:37:36.838Z,12.83
2018-03-16T08:40:05.009Z,13.50
2018-03-16T08:42:33.193Z,11.07
2018-03-16T08:45:01.376Z,12.07
2018-03-16T08:47:29.584Z,12.30
2018-03-16T08:49:57.758Z,12.03
2018-03-16T08:52:26.745Z,13.47
2018-03-16T08:54:55.668Z,10.50
2018-03-16T08:57:23.847Z,8.67
2018-03-16T08:59:51.997Z,8.00
2018-03-16T09:02:20.169Z,8.30
2018-03-16T09:04:48.348Z,12.90
2018-03-16T09:07:16.500Z,7.10
2018-03-16T09:09:44.682Z,7.00
2018-03-16T09:12:13.600Z,7.17
2018-03-16T09:14:41.799Z,6.60
2018-03-16T09:17:09.971Z,7.43
2018-03-16T09:19:38.152Z,5.90
2018-03-16T09:22:06.308Z,6.50
2018-03-16T09:24:34.479Z,6.00
2018-03-16T09:27:02.638Z,7.00
2018-03-16T09:29:30.808Z,6.50
2018-03-16T09:31:58.960Z,7.70
2018-03-16T09:34:27.896Z,7.10
2018-03-16T09:36:56.082Z,6.57
2018-03-16T09:39:24.261Z,7.43
2018-03-16T09:41:53.186Z,8.20
2018-03-16T09:44:21.386Z,6.57
2018-03-16T09:46:49.556Z,8.17
2018-03-16T09:49:17.742Z,8.40
2018-03-16T09:51:45.909Z,7.10
2018-03-16T09:54:14.102Z,7.73
2018-03-16T09:56:42.256Z,7.23
2018-03-16T09:59:10.422Z,5.77
2018-03-16T10:01:38.613Z,6.90
2018-03-16T10:04:06.795Z,5.93
2018-03-16T10:06:34.976Z,5.10
2018-03-16T10:09:03.901Z,5.07
2018-03-16T10:11:32.072Z,5.30
2018-03-16T10:14:00.240Z,4.17
2018-03-16T10:16:28.425Z,7.10
2018-03-16T10:18:56.580Z,4.20
2018-03-16T10:21:24.770Z,3.50
2018-03-16T10:23:52.916Z,3.43
2018-03-16T10:26:21.065Z,3.33
2018-03-16T10:28:50.357Z,3.43
2018-03-16T10:31:18.519Z,2.77
2018-03-16T10:33:46.691Z,2.83
2018-03-16T10:36:14.858Z,2.53
2018-03-16T10:38:43.037Z,2.27
2018-03-16T10:41:11.228Z,2.10
2018-03-16T10:43:40.160Z,3.20
2018-03-16T10:46:08.681Z,2.23
2018-03-16T10:48:36.850Z,3.50
2018-03-16T10:51:05.007Z,2.20
2018-03-16T10:53:33.176Z,2.20
2018-03-16T10:56:01.366Z,3.20
2018-03-16T10:58:29.544Z,2.30
2018-03-16T11:00:59.529Z,2.67
2018-03-16T11:03:33.365Z,2.20
2018-03-16T11:06:01.517Z,2.30
2018-03-16T11:08:31.117Z,2.50
2018-03-16T11:10:59.281Z,2.67
2018-03-16T11:13:27.446Z,2.10
2018-03-16T11:15:55.622Z,2.77
2018-03-16T11:18:23.797Z,1.70
2018-03-16T11:20:51.957Z,2.27
2018-03-16T11:23:20.960Z,1.93
2018-03-16T11:25:49.139Z,4.90
2018-03-16T11:28:17.638Z,2.47
2018-03-16T11:30:45.812Z,2.60
2018-03-16T11:33:13.973Z,3.83
2018-03-16T11:35:42.194Z,2.60
2018-03-16T11:38:10.320Z,2.40
2018-03-16T11:40:38.525Z,2.00
2018-03-16T11:43:06.692Z,1.70
2018-03-16T11:45:34.865Z,1.63
2018-03-16T11:48:03.793Z,1.80
2018-03-16T11:50:31.968Z,1.60
2018-03-16T11:53:00.136Z,2.07
2018-03-16T11:55:28.326Z,3.47
2018-03-16T11:57:56.525Z,1.97
2018-03-16T12:00:24.684Z,1.73
2018-03-16T12:02:52.866Z,3.20
2018-03-16T12:05:21.030Z,2.17
2018-03-16T12:07:49.197Z,2.53
2018-03-16T12:10:17.369Z,2.20
2018-03-16T12:12:45.540Z,2.00
2018-03-16T12:15:13.705Z,2.00
2018-03-16T12:17:41.872Z,2.10
2018-03-16T12:20:10.033Z,2.27
2018-03-16T12:22:38.193Z,1.63
2018-03-16T12:25:06.341Z,1.73
2018-03-16T12:27:35.303Z,2.13
2018-03-16T12:30:03.468Z,1.80
2018-03-16T12:32:31.645Z,1.93
2018-03-16T12:34:59.803Z,2.07
2018-03-16T12:37:27.975Z,2.03
2018-03-16T12:39:56.157Z,1.87
2018-03-16T12:42:24.295Z,2.10
2018-03-16T12:44:52.455Z,2.17
2018-03-16T12:47:20.659Z,2.23
2018-03-16T12:49:49.143Z,2.10
2018-03-16T12:52:17.318Z,9.30
2018-03-16T12:54:45.494Z,2.10
2018-03-16T12:57:14.018Z,2.27
2018-03-16T12:59:42.948Z,2.00
2018-03-16T13:02:11.138Z,1.70
2018-03-16T13:04:39.321Z,2.17
2018-03-16T13:07:07.481Z,2.20
2018-03-16T13:09:35.652Z,2.20
2018-03-16T13:12:03.829Z,2.30
2018-03-16T13:14:32.004Z,3.30
2018-03-16T13:17:00.168Z,2.30
2018-03-16T13:19:28.684Z,2.17
2018-03-16T13:21:57.973Z,2.27
2018-03-16T13:24:26.186Z,2.00
2018-03-16T13:26:54.366Z,2.83
2018-03-16T13:29:22.526Z,2.67
2018-03-16T13:31:50.731Z,2.47
2018-03-16T13:34:18.928Z,2.80
2018-03-16T13:36:47.097Z,2.33
2018-03-16T13:39:15.288Z,2.30
2018-03-16T13:41:44.220Z,6.17
2018-03-16T13:44:12.389Z,2.00
2018-03-16T13:46:40.571Z,2.27
2018-03-16T13:49:08.727Z,2.30
2018-03-16T13:51:36.906Z,1.80
2018-03-16T13:54:05.054Z,2.40
2018-03-16T13:56:33.992Z,1.97
2018-03-16T13:59:02.173Z,1.90
2018-03-16T14:01:30.368Z,2.57
2018-03-16T14:03:58.544Z,6.57
2018-03-16T14:06:27.504Z,2.77
2018-03-16T14:08:55.685Z,2.90
2018-03-16T14:11:23.905Z,2.30
2018-03-16T14:13:52.116Z,3.30
2018-03-16T14:16:20.301Z,4.33
2018-03-16T14:18:48.469Z,3.10
2018-03-16T14:21:16.668Z,3.67
2018-03-16T14:23:44.840Z,4.17
2018-03-16T14:26:13.000Z,2.37
2018-03-16T14:28:41.178Z,2.20
2018-03-16T14:31:09.341Z,2.43
2018-03-16T14:33:37.509Z,2.47
2018-03-16T14:36:05.752Z,2.23
2018-03-16T14:38:33.932Z,3.30
2018-03-16T14:41:02.102Z,3.00
2018-03-16T14:43:30.264Z,4.60
2018-03-16T14:45:58.428Z,1.80
2018-03-16T14:48:26.602Z,3.03
2018-03-16T14:50:54.748Z,3.03
2018-03-16T14:53:22.946Z,2.70
2018-03-16T14:55:51.106Z,2.37
2018-03-16T14:58:19.261Z,3.00
2018-03-16T15:00:48.196Z,2.10
2018-03-16T15:03:16.353Z,2.53
2018-03-16T15:05:44.745Z,2.20
2018-03-16T15:08:13.726Z,1.60
2018-03-16T15:10:41.899Z,2.70
2018-03-16T15:13:10.063Z,2.33
2018-03-16T15:15:38.390Z,2.17
2018-03-16T15:18:07.331Z,2.00
2018-03-16T15:20:35.501Z,2.53
2018-03-16T15:23:03.669Z,1.87
2018-03-16T15:25:31.950Z,2.70
2018-03-16T15:28:00.066Z,2.80
2018-03-16T15:30:29.667Z,3.43
2018-03-16T15:32:57.806Z,2.33
2018-03-16T15:35:26.007Z,2.77
2018-03-16T15:37:54.163Z,2.37
2018-03-16T15:40:22.294Z,3.43
2018-03-16T15:42:50.424Z,2.90
2018-03-16T15:45:18.689Z,2.20
2018-03-16T15:47:46.795Z,2.50
2018-03-16T15:50:14.951Z,2.10
2018-03-16T15:52:43.847Z,3.20
2018-03-16T15:55:12.730Z,2.30
2018-03-16T15:57:41.997Z,5.30
2018-03-16T16:00:10.107Z,5.20
2018-03-16T16:02:39.019Z,4.03
2018-03-16T16:05:07.145Z,3.30
2018-03-16T16:07:35.283Z,3.10
2018-03-16T16:10:03.411Z,3.43
2018-03-16T16:12:32.314Z,5.03
2018-03-16T16:15:00.483Z,4.37
2018-03-16T16:20:25.583Z,5.07
2018-03-16T16:22:54.495Z,3.97
2018-03-16T16:25:22.611Z,3.73
2018-03-16T16:27:50.744Z,7.13
2018-03-16T16:30:18.864Z,4.40
2018-03-16T16:32:48.510Z,4.73
2018-03-16T16:35:16.630Z,4.63
2018-03-16T16:37:44.789Z,8.10
2018-03-16T16:40:12.910Z,4.33
2018-03-16T16:42:41.827Z,3.80
2018-03-16T16:45:09.952Z,6.10
2018-03-16T16:47:38.124Z,5.93
2018-03-16T16:50:06.224Z,4.00
2018-03-16T16:52:34.342Z,4.10
2018-03-16T16:55:02.907Z,7.10
2018-03-16T16:57:30.934Z,4.97
2018-03-16T16:59:59.836Z,5.57
2018-03-16T17:02:27.967Z,6.67
2018-03-16T17:04:56.106Z,7.70
2018-03-16T17:07:24.244Z,6.00
2018-03-16T17:09:53.138Z,7.80
2018-03-16T17:12:21.258Z,6.93
2018-03-16T17:14:49.412Z,13.60
2018-03-16T17:17:17.543Z,13.23
2018-03-16T17:19:45.679Z,8.40
2018-03-16T17:22:13.799Z,8.00
2018-03-16T17:24:41.956Z,13.80
2018-03-16T17:27:10.867Z,9.77
2018-03-16T17:29:39.355Z,11.07
2018-03-16T17:32:07.475Z,10.30
2018-03-16T17:34:35.665Z,12.80
2018-03-16T17:37:04.566Z,11.67
2018-03-16T17:39:32.686Z,10.43
2018-03-16T17:42:00.831Z,6.43
2018-03-16T17:44:28.951Z,9.33
2018-03-16T17:46:57.099Z,6.20
2018-03-16T17:49:25.222Z,6.00
2018-03-16T17:51:53.354Z,6.67
2018-03-16T17:54:21.482Z,6.33
2018-03-16T17:56:49.624Z,7.13
2018-03-16T17:59:18.503Z,10.33
2018-03-16T18:01:46.634Z,9.00
2018-03-16T18:04:14.770Z,11.40
2018-03-16T18:06:42.916Z,11.33
2018-03-16T18:09:11.050Z,12.30
2018-03-16T18:11:39.186Z,9.23
2018-03-16T18:14:07.322Z,9.33
2018-03-16T18:16:35.854Z,10.77
2018-03-16T18:19:04.038Z,9.97
2018-03-16T18:21:32.158Z,10.20
2018-03-16T18:24:01.070Z,15.17
2018-03-16T18:26:29.204Z,12.20
2018-03-16T18:28:57.335Z,11.07
2018-03-16T18:31:25.461Z,9.37
2018-03-16T18:33:53.656Z,12.73
2018-03-16T18:36:21.797Z,9.43
2018-03-16T18:38:49.937Z,10.67
2018-03-16T18:41:18.070Z,6.70
2018-03-16T18:43:46.971Z,7.10
2018-03-16T18:46:15.098Z,8.30
2018-03-16T18:48:43.230Z,9.47
2018-03-16T18:51:11.432Z,7.90
2018-03-16T18:53:39.573Z,7.90
2018-03-16T18:56:07.695Z,7.80
2018-03-16T18:58:35.831Z,8.17
2018-03-16T19:01:03.972Z,8.63
2018-03-16T19:03:32.892Z,8.70
2018-03-16T19:06:01.023Z,9.20
2018-03-16T19:08:29.171Z,9.37
2018-03-16T19:10:57.275Z,9.50
2018-03-16T19:13:25.415Z,7.47
2018-03-16T19:15:53.555Z,8.27
2018-03-16T19:18:21.695Z,10.80
2018-03-16T19:20:49.948Z,8.40
2018-03-16T19:23:18.814Z,7.40
2018-03-16T19:25:46.960Z,9.23
2018-03-16T19:28:15.078Z,10.43
2018-03-16T19:30:43.240Z,16.90
2018-03-16T19:33:11.416Z,15.33
2018-03-16T19:35:40.320Z,10.33
2018-03-16T19:38:08.462Z,13.30
2018-03-16T19:40:36.625Z,14.50
2018-03-16T19:43:04.754Z,17.13
2018-03-16T19:45:35.147Z,10.33
2018-03-16T19:48:04.331Z,8.57
2018-03-16T19:50:33.230Z,8.00
2018-03-16T19:53:03.054Z,6.13
2018-03-16T19:55:32.184Z,8.43
2018-03-16T19:58:03.442Z,10.63
2018-03-16T20:00:32.964Z,17.30
2018-03-16T20:03:02.147Z,16.53
2018-03-16T20:05:31.176Z,10.50
2018-03-16T20:08:00.067Z,8.40
2018-03-16T20:10:29.743Z,8.60
2018-03-16T20:12:57.888Z,8.10
2018-03-16T20:15:26.081Z,7.63
2018-03-16T20:17:54.230Z,7.53
2018-03-16T20:20:22.357Z,7.67
2018-03-16T20:22:52.993Z,6.10
2018-03-16T20:25:23.152Z,7.63
2018-03-16T20:27:52.702Z,6.17
2018-03-16T20:30:22.378Z,7.50
2018-03-16T20:32:51.179Z,6.27
2018-03-16T20:35:20.034Z,6.93
2018-03-16T20:37:49.670Z,7.13
2018-03-16T20:40:18.859Z,8.83
2018-03-16T20:42:47.075Z,6.70
2018-03-16T20:45:17.461Z,9.40
2018-03-16T20:47:47.097Z,6.60
2018-03-16T20:50:16.054Z,6.47
2018-03-16T20:52:44.218Z,7.90
2018-03-16T20:55:12.498Z,8.10
2018-03-16T20:57:40.815Z,7.27
2018-03-16T21:00:08.959Z,8.00
2018-03-16T21:02:37.854Z,8.50
2018-03-16T21:05:06.795Z,15.30
2018-03-16T21:07:34.950Z,9.83
2018-03-16T21:10:03.151Z,16.70
2018-03-16T21:12:31.326Z,17.03
2018-03-16T21:14:59.478Z,16.77
2018-03-16T21:17:27.618Z,14.80
2018-03-16T21:19:56.635Z,17.10
2018-03-16T21:22:24.770Z,17.30
2018-03-16T21:24:53.710Z,15.93
2018-03-16T21:27:21.841Z,16.03
2018-03-16T21:29:49.996Z,17.07
2018-03-16T21:32:18.939Z,16.33
2018-03-16T21:34:47.082Z,14.83
2018-03-16T21:37:15.271Z,13.07
2018-03-16T21:39:43.392Z,11.33
2018-03-16T21:42:11.528Z,10.17
2018-03-16T21:44:40.418Z,9.93
2018-03-16T21:47:08.631Z,10.50
2018-03-16T21:49:37.526Z,9.47
2018-03-16T21:52:05.741Z,11.50
2018-03-16T21:54:33.870Z,10.23
2018-03-16T21:57:02.018Z,11.60
2018-03-16T21:59:30.182Z,9.57
2018-03-16T22:01:58.354Z,9.87
2018-03-16T22:04:26.492Z,9.40
2018-03-16T22:06:54.690Z,8.07
2018-03-16T22:09:22.840Z,9.20
2018-03-16T22:11:51.062Z,10.50
2018-03-16T22:14:19.198Z,9.80
2018-03-16T22:16:47.465Z,10.30
2018-03-16T22:19:15.607Z,8.80
2018-03-16T22:21:43.756Z,11.70
2018-03-16T22:24:12.778Z,10.60
2018-03-16T22:26:40.914Z,11.50
2018-03-16T22:29:09.828Z,13.18
2018-03-16T22:31:38.011Z,12.50
2018-03-16T22:34:06.159Z,13.02
2018-03-16T22:36:34.295Z,14.93
2018-03-16T22:39:02.447Z,15.75
2018-03-16T22:41:30.631Z,17.60
2018-03-16T22:43:58.787Z,17.30
2018-03-16T22:46:26.934Z,17.98
2018-03-16T22:48:55.082Z,18.25
2018-03-16T22:51:23.220Z,18.10
2018-03-16T22:53:52.165Z,19.25
2018-03-16T22:56:20.844Z,20.80
2018-03-16T22:58:49.125Z,19.67
2018-03-16T23:01:17.297Z,18.95
2018-03-16T23:03:45.467Z,18.25
2018-03-16T23:06:13.586Z,23.48
2018-03-16T23:08:42.511Z,21.42
2018-03-16T23:11:10.638Z,22.33
2018-03-16T23:13:38.791Z,24.73
2018-03-16T23:16:06.950Z,23.17
2018-03-16T23:18:35.099Z,25.92
2018-03-16T23:21:03.232Z,22.87
2018-03-16T23:23:31.396Z,27.62
2018-03-16T23:25:59.526Z,24.10
2018-03-16T23:28:27.723Z,26.67
2018-03-16T23:30:55.931Z,28.45
2018-03-16T23:33:24.834Z,29.70
2018-03-16T23:35:52.995Z,30.90
2018-03-16T23:38:21.154Z,29.60
2018-03-16T23:40:50.059Z,31.65
2018-03-16T23:43:18.195Z,30.50
2018-03-16T23:45:46.342Z,30.58
2018-03-16T23:48:15.256Z,28.58
2018-03-16T23:50:43.431Z,30.15
2018-03-16T23:53:11.559Z,32.13
2018-03-16T23:55:39.703Z,28.23
2018-03-16T23:58:07.932Z,30.27
